createdAt,value
2023-02-27T00:00:42.684Z,-4.84
2023-02-27T00:01:43.531Z,-4.86
2023-02-27T00:02:42.681Z,-4.88
2023-02-27T00:03:42.786Z,-4.91
2023-02-27T00:04:42.636Z,-4.95
2023-02-27T00:05:42.650Z,-4.98
2023-02-27T00:06:42.786Z,-5.00
2023-02-27T00:07:42.632Z,-5.03
2023-02-27T00:08:42.641Z,-5.05
2023-02-27T00:09:42.661Z,-5.07
2023-02-27T00:10:42.582Z,-5.10
2023-02-27T00:11:42.590Z,-5.12
2023-02-27T00:12:42.658Z,-5.15
2023-02-27T00:13:42.593Z,-5.17
2023-02-27T00:14:42.541Z,-5.18
2023-02-27T00:15:42.698Z,-5.17
2023-02-27T00:16:42.524Z,-5.16
2023-02-27T00:17:42.525Z,-5.14
2023-02-27T00:18:42.514Z,-5.13
2023-02-27T00:19:42.509Z,-5.11
2023-02-27T00:20:42.541Z,-5.10
2023-02-27T00:21:42.764Z,-5.10
2023-02-27T00:22:42.496Z,-5.10
2023-02-27T00:23:42.634Z,-5.11
2023-02-27T00:24:42.633Z,-5.11
2023-02-27T00:25:42.472Z,-5.12
2023-02-27T00:26:42.527Z,-5.14
2023-02-27T00:27:42.442Z,-5.15
2023-02-27T00:28:42.431Z,-5.16
2023-02-27T00:29:42.547Z,-5.17
2023-02-27T00:30:42.451Z,-5.18
2023-02-27T00:31:42.461Z,-5.19
2023-02-27T00:32:42.505Z,-5.21
2023-02-27T00:33:42.398Z,-5.22
2023-02-27T00:34:42.371Z,-5.22
2023-02-27T00:35:42.418Z,-5.22
2023-02-27T00:36:42.336Z,-5.23
2023-02-27T00:37:42.347Z,-5.25
2023-02-27T00:38:42.349Z,-5.28
2023-02-27T00:39:42.354Z,-5.30
2023-02-27T00:40:42.321Z,-5.31
2023-02-27T00:41:42.454Z,-5.32
2023-02-27T00:42:42.286Z,-5.33
2023-02-27T00:43:42.337Z,-5.34
2023-02-27T00:44:42.295Z,-5.34
2023-02-27T00:45:42.500Z,-5.34
2023-02-27T00:46:42.343Z,-5.35
2023-02-27T00:47:42.253Z,-5.37
2023-02-27T00:48:42.229Z,-5.39
2023-02-27T00:49:42.328Z,-5.40
2023-02-27T00:50:42.255Z,-5.40
2023-02-27T00:51:42.249Z,-5.41
2023-02-27T00:52:42.212Z,-5.42
2023-02-27T00:53:42.444Z,-5.44
2023-02-27T00:54:42.203Z,-5.44
2023-02-27T00:55:42.211Z,-5.45
2023-02-27T00:56:42.169Z,-5.46
2023-02-27T00:57:42.305Z,-5.46
2023-02-27T00:58:42.287Z,-5.46
2023-02-27T00:59:42.135Z,-5.46
2023-02-27T01:00:42.251Z,-5.46
2023-02-27T01:01:42.173Z,-5.48
2023-02-27T01:02:42.250Z,-5.49
2023-02-27T01:03:42.220Z,-5.50
2023-02-27T01:04:42.095Z,-5.51
2023-02-27T01:05:42.075Z,-5.52
2023-02-27T01:06:42.169Z,-5.53
2023-02-27T01:07:42.060Z,-5.54
2023-02-27T01:08:42.050Z,-5.56
2023-02-27T01:09:42.224Z,-5.58
2023-02-27T01:10:42.034Z,-5.60
2023-02-27T01:11:42.049Z,-5.61
2023-02-27T01:12:42.130Z,-5.62
2023-02-27T01:13:41.996Z,-5.62
2023-02-27T01:14:41.993Z,-5.64
2023-02-27T01:15:42.165Z,-5.65
2023-02-27T01:16:41.988Z,-5.66
2023-02-27T01:17:42.037Z,-5.66
2023-02-27T01:18:41.959Z,-5.66
2023-02-27T01:19:41.983Z,-5.68
2023-02-27T01:20:41.960Z,-5.69
2023-02-27T01:21:41.970Z,-5.70
2023-02-27T01:22:41.962Z,-5.70
2023-02-27T01:23:41.914Z,-5.69
2023-02-27T01:24:41.904Z,-5.70
2023-02-27T01:25:41.990Z,-5.71
2023-02-27T01:26:41.899Z,-5.72
2023-02-27T01:27:41.877Z,-5.73
2023-02-27T01:28:41.999Z,-5.73
2023-02-27T01:29:41.866Z,-5.72
2023-02-27T01:30:41.885Z,-5.70
2023-02-27T01:31:41.958Z,-5.69
2023-02-27T01:32:41.877Z,-5.68
2023-02-27T01:33:41.816Z,-5.67
2023-02-27T01:34:41.822Z,-5.67
2023-02-27T01:35:41.907Z,-5.68
2023-02-27T01:36:41.788Z,-5.68
2023-02-27T01:37:41.802Z,-5.69
2023-02-27T01:38:41.863Z,-5.70
2023-02-27T01:39:41.764Z,-5.70
2023-02-27T01:40:41.773Z,-5.71
2023-02-27T01:41:41.772Z,-5.72
2023-02-27T01:42:41.853Z,-5.74
2023-02-27T01:43:41.723Z,-5.75
2023-02-27T01:44:41.714Z,-5.76
2023-02-27T01:45:41.794Z,-5.77
2023-02-27T01:46:41.701Z,-5.77
2023-02-27T01:47:41.719Z,-5.76
2023-02-27T01:48:41.810Z,-5.76
2023-02-27T01:49:41.669Z,-5.75
2023-02-27T01:50:41.662Z,-5.74
2023-02-27T01:51:41.762Z,-5.74
2023-02-27T01:52:41.645Z,-5.74
2023-02-27T01:53:41.651Z,-5.74
2023-02-27T01:54:41.634Z,-5.73
2023-02-27T01:55:41.691Z,-5.72
2023-02-27T01:56:41.637Z,-5.72
2023-02-27T01:57:41.595Z,-5.71
2023-02-27T01:58:41.593Z,-5.71
2023-02-27T01:59:41.601Z,-5.70
2023-02-27T02:00:41.656Z,-5.70
2023-02-27T02:01:41.626Z,-5.70
2023-02-27T02:02:41.567Z,-5.71
2023-02-27T02:03:41.597Z,-5.72
2023-02-27T02:04:41.548Z,-5.72
2023-02-27T02:05:41.532Z,-5.70
2023-02-27T02:06:41.539Z,-5.70
2023-02-27T02:07:41.631Z,-5.70
2023-02-27T02:08:42.437Z,-5.70
2023-02-27T02:09:41.495Z,-5.72
2023-02-27T02:10:41.598Z,-5.73
2023-02-27T02:11:41.466Z,-5.75
2023-02-27T02:12:41.471Z,-5.76
2023-02-27T02:13:41.470Z,-5.78
2023-02-27T02:14:41.471Z,-5.79
2023-02-27T02:15:41.436Z,-5.80
2023-02-27T02:16:41.477Z,-5.82
2023-02-27T02:17:41.413Z,-5.82
2023-02-27T02:18:41.413Z,-5.83
2023-02-27T02:19:41.415Z,-5.82
2023-02-27T02:20:41.423Z,-5.81
2023-02-27T02:21:41.374Z,-5.80
2023-02-27T02:22:41.460Z,-5.79
2023-02-27T02:23:41.369Z,-5.78
2023-02-27T02:24:41.374Z,-5.78
2023-02-27T02:25:41.359Z,-5.78
2023-02-27T02:26:41.357Z,-5.78
2023-02-27T02:27:41.326Z,-5.78
2023-02-27T02:28:41.317Z,-5.78
2023-02-27T02:29:41.313Z,-5.78
2023-02-27T02:30:41.952Z,-5.77
2023-02-27T02:31:41.378Z,-5.75
2023-02-27T02:32:41.309Z,-5.73
2023-02-27T02:33:41.305Z,-5.72
2023-02-27T02:34:41.381Z,-5.70
2023-02-27T02:35:41.249Z,-5.70
2023-02-27T02:36:41.268Z,-5.70
2023-02-27T02:37:41.277Z,-5.69
2023-02-27T02:38:41.240Z,-5.68
2023-02-27T02:39:41.226Z,-5.67
2023-02-27T02:40:41.220Z,-5.66
2023-02-27T02:41:41.226Z,-5.67
2023-02-27T02:42:41.306Z,-5.67
2023-02-27T02:43:41.272Z,-5.67
2023-02-27T02:44:41.177Z,-5.67
2023-02-27T02:45:41.217Z,-5.67
2023-02-27T02:46:41.848Z,-5.67
2023-02-27T02:47:41.153Z,-5.68
2023-02-27T02:48:41.142Z,-5.68
2023-02-27T02:49:41.114Z,-5.69
2023-02-27T02:50:41.121Z,-5.68
2023-02-27T02:51:41.197Z,-5.67
2023-02-27T02:52:41.141Z,-5.65
2023-02-27T02:53:41.079Z,-5.64
2023-02-27T02:54:41.192Z,-5.64
2023-02-27T02:55:41.068Z,-5.63
2023-02-27T02:56:41.054Z,-5.62
2023-02-27T02:57:41.129Z,-5.61
2023-02-27T02:58:41.061Z,-5.61
2023-02-27T02:59:41.028Z,-5.60
2023-02-27T03:00:41.123Z,-5.58
2023-02-27T03:01:41.336Z,-5.57
2023-02-27T03:02:40.999Z,-5.57
2023-02-27T03:03:40.998Z,-5.57
2023-02-27T03:04:41.133Z,-5.57
2023-02-27T03:05:40.972Z,-5.57
2023-02-27T03:06:40.968Z,-5.57
2023-02-27T03:07:41.046Z,-5.58
2023-02-27T03:08:40.949Z,-5.59
2023-02-27T03:09:40.975Z,-5.60
2023-02-27T03:10:40.999Z,-5.61
2023-02-27T03:11:40.915Z,-5.61
2023-02-27T03:12:40.914Z,-5.61
2023-02-27T03:13:41.002Z,-5.61
2023-02-27T03:14:40.888Z,-5.62
2023-02-27T03:15:40.919Z,-5.63
2023-02-27T03:16:40.937Z,-5.63
2023-02-27T03:17:40.876Z,-5.63
2023-02-27T03:18:40.860Z,-5.64
2023-02-27T03:19:40.925Z,-5.64
2023-02-27T03:20:40.843Z,-5.64
2023-02-27T03:21:40.832Z,-5.65
2023-02-27T03:22:40.873Z,-5.67
2023-02-27T03:23:40.822Z,-5.68
2023-02-27T03:24:40.793Z,-5.68
2023-02-27T03:25:40.918Z,-5.68
2023-02-27T03:26:40.807Z,-5.68
2023-02-27T03:27:40.767Z,-5.68
2023-02-27T03:28:40.792Z,-5.69
2023-02-27T03:29:40.767Z,-5.69
2023-02-27T03:30:40.889Z,-5.70
2023-02-27T03:31:41.552Z,-5.70
2023-02-27T03:32:40.741Z,-5.70
2023-02-27T03:33:40.729Z,-5.71
2023-02-27T03:34:40.790Z,-5.72
2023-02-27T03:35:40.740Z,-5.72
2023-02-27T03:36:40.816Z,-5.73
2023-02-27T03:37:40.743Z,-5.74
2023-02-27T03:38:40.683Z,-5.75
2023-02-27T03:39:40.734Z,-5.75
2023-02-27T03:40:40.648Z,-5.75
2023-02-27T03:41:40.657Z,-5.75
2023-02-27T03:42:40.707Z,-5.74
2023-02-27T03:43:40.649Z,-5.73
2023-02-27T03:44:40.612Z,-5.72
2023-02-27T03:45:40.726Z,-5.71
2023-02-27T03:46:40.611Z,-5.70
2023-02-27T03:47:40.597Z,-5.69
2023-02-27T03:48:40.630Z,-5.68
2023-02-27T03:49:40.567Z,-5.67
2023-02-27T03:50:40.585Z,-5.67
2023-02-27T03:51:40.564Z,-5.69
2023-02-27T03:52:40.555Z,-5.70
2023-02-27T03:53:40.531Z,-5.71
2023-02-27T03:54:40.606Z,-5.70
2023-02-27T03:55:40.529Z,-5.69
2023-02-27T03:56:40.552Z,-5.68
2023-02-27T03:57:40.491Z,-5.68
2023-02-27T03:58:40.568Z,-5.69
2023-02-27T03:59:40.488Z,-5.72
2023-02-27T04:00:40.473Z,-5.75
2023-02-27T04:01:40.575Z,-5.78
2023-02-27T04:02:40.455Z,-5.81
2023-02-27T04:03:40.432Z,-5.84
2023-02-27T04:04:40.600Z,-5.86
2023-02-27T04:05:40.416Z,-5.88
2023-02-27T04:06:40.416Z,-5.90
2023-02-27T04:07:40.396Z,-5.90
2023-02-27T04:08:40.421Z,-5.90
2023-02-27T04:09:40.374Z,-5.90
2023-02-27T04:10:40.393Z,-5.91
2023-02-27T04:11:40.362Z,-5.92
2023-02-27T04:12:40.355Z,-5.93
2023-02-27T04:13:40.355Z,-5.93
2023-02-27T04:14:40.457Z,-5.94
2023-02-27T04:15:40.339Z,-5.95
2023-02-27T04:16:40.325Z,-5.96
2023-02-27T04:17:40.541Z,-5.96
2023-02-27T04:18:40.315Z,-5.96
2023-02-27T04:19:40.298Z,-5.96
2023-02-27T04:20:40.392Z,-5.96
2023-02-27T04:21:40.265Z,-5.97
2023-02-27T04:22:40.291Z,-5.97
2023-02-27T04:23:40.319Z,-5.96
2023-02-27T04:24:40.285Z,-5.95
2023-02-27T04:25:40.253Z,-5.95
2023-02-27T04:26:40.340Z,-5.96
2023-02-27T04:27:40.217Z,-5.96
2023-02-27T04:28:40.243Z,-5.98
2023-02-27T04:29:40.292Z,-6.00
2023-02-27T04:30:40.835Z,-6.02
2023-02-27T04:31:40.338Z,-6.04
2023-02-27T04:32:40.355Z,-6.06
2023-02-27T04:33:40.165Z,-6.07
2023-02-27T04:34:40.152Z,-6.08
2023-02-27T04:35:40.251Z,-6.10
2023-02-27T04:36:40.140Z,-6.12
2023-02-27T04:37:40.128Z,-6.13
2023-02-27T04:38:40.225Z,-6.14
2023-02-27T04:39:40.129Z,-6.14
2023-02-27T04:40:40.125Z,-6.14
2023-02-27T04:41:40.191Z,-6.14
2023-02-27T04:42:40.091Z,-6.13
2023-02-27T04:43:40.090Z,-6.13
2023-02-27T04:44:40.156Z,-6.14
2023-02-27T04:45:40.120Z,-6.14
2023-02-27T04:46:40.102Z,-6.14
2023-02-27T04:47:40.101Z,-6.13
2023-02-27T04:48:40.044Z,-6.12
2023-02-27T04:49:40.049Z,-6.12
2023-02-27T04:50:40.085Z,-6.12
2023-02-27T04:51:40.024Z,-6.13
2023-02-27T04:52:40.021Z,-6.14
2023-02-27T04:53:39.987Z,-6.15
2023-02-27T04:54:40.006Z,-6.15
2023-02-27T04:55:40.058Z,-6.16
2023-02-27T04:56:39.985Z,-6.16
2023-02-27T04:57:39.954Z,-6.16
2023-02-27T04:58:40.033Z,-6.17
2023-02-27T04:59:40.086Z,-6.18
2023-02-27T05:00:39.964Z,-6.20
2023-02-27T05:01:40.253Z,-6.21
2023-02-27T05:02:39.995Z,-6.21
2023-02-27T05:03:39.897Z,-6.22
2023-02-27T05:04:39.998Z,-6.22
2023-02-27T05:05:39.914Z,-6.23
2023-02-27T05:06:39.874Z,-6.23
2023-02-27T05:07:40.150Z,-6.24
2023-02-27T05:08:39.868Z,-6.25
2023-02-27T05:09:39.871Z,-6.25
2023-02-27T05:10:39.963Z,-6.25
2023-02-27T05:11:39.829Z,-6.26
2023-02-27T05:12:39.827Z,-6.28
2023-02-27T05:13:39.858Z,-6.28
2023-02-27T05:14:39.827Z,-6.29
2023-02-27T05:15:39.819Z,-6.28
2023-02-27T05:16:39.794Z,-6.28
2023-02-27T05:17:39.804Z,-6.28
2023-02-27T05:18:39.819Z,-6.28
2023-02-27T05:19:39.889Z,-6.28
2023-02-27T05:20:39.884Z,-6.28
2023-02-27T05:21:39.761Z,-6.28
2023-02-27T05:22:40.025Z,-6.28
2023-02-27T05:23:39.765Z,-6.28
2023-02-27T05:24:39.713Z,-6.29
2023-02-27T05:25:39.715Z,-6.29
2023-02-27T05:26:39.683Z,-6.29
2023-02-27T05:27:39.696Z,-6.29
2023-02-27T05:28:39.724Z,-6.29
2023-02-27T05:29:39.668Z,-6.28
2023-02-27T05:30:39.707Z,-6.26
2023-02-27T05:31:39.809Z,-6.25
2023-02-27T05:32:39.653Z,-6.24
2023-02-27T05:33:39.825Z,-6.25
2023-02-27T05:34:39.696Z,-6.25
2023-02-27T05:35:39.604Z,-6.26
2023-02-27T05:36:39.681Z,-6.26
2023-02-27T05:37:39.536Z,-6.26
2023-02-27T05:38:39.515Z,-6.27
2023-02-27T05:39:39.657Z,-6.27
2023-02-27T05:40:39.525Z,-6.27
2023-02-27T05:41:39.591Z,-6.28
2023-02-27T05:42:39.581Z,-6.28
2023-02-27T05:43:39.477Z,-6.29
2023-02-27T05:44:39.460Z,-6.31
2023-02-27T05:45:39.584Z,-6.31
2023-02-27T05:46:39.571Z,-6.31
2023-02-27T05:47:39.505Z,-6.32
2023-02-27T05:48:39.424Z,-6.33
2023-02-27T05:49:39.450Z,-6.34
2023-02-27T05:50:39.533Z,-6.34
2023-02-27T05:51:39.487Z,-6.34
2023-02-27T05:52:39.415Z,-6.33
2023-02-27T05:53:39.398Z,-6.33
2023-02-27T05:54:39.407Z,-6.31
2023-02-27T05:55:39.357Z,-6.31
2023-02-27T05:56:39.365Z,-6.30
2023-02-27T05:57:39.393Z,-6.30
2023-02-27T05:58:39.354Z,-6.30
2023-02-27T05:59:39.353Z,-6.30
2023-02-27T06:00:39.340Z,-6.30
2023-02-27T06:01:39.335Z,-6.31
2023-02-27T06:02:39.318Z,-6.30
2023-02-27T06:03:39.423Z,-6.29
2023-02-27T06:04:39.285Z,-6.28
2023-02-27T06:05:39.346Z,-6.28
2023-02-27T06:06:39.291Z,-6.28
2023-02-27T06:07:39.278Z,-6.28
2023-02-27T06:08:39.277Z,-6.28
2023-02-27T06:09:39.243Z,-6.28
2023-02-27T06:10:39.226Z,-6.27
2023-02-27T06:11:39.272Z,-6.26
2023-02-27T06:12:39.232Z,-6.24
2023-02-27T06:13:41.820Z,-6.23
2023-02-27T06:14:39.223Z,-6.22
2023-02-27T06:15:39.200Z,-6.22
2023-02-27T06:16:39.280Z,-6.22
2023-02-27T06:17:39.233Z,-6.22
2023-02-27T06:18:39.298Z,-6.22
2023-02-27T06:19:39.185Z,-6.21
2023-02-27T06:20:39.166Z,-6.21
2023-02-27T06:21:39.124Z,-6.22
2023-02-27T06:22:39.152Z,-6.23
2023-02-27T06:23:39.135Z,-6.24
2023-02-27T06:24:39.115Z,-6.23
2023-02-27T06:25:39.121Z,-6.22
2023-02-27T06:26:39.118Z,-6.21
2023-02-27T06:27:39.090Z,-6.21
2023-02-27T06:28:39.066Z,-6.21
2023-02-27T06:29:39.053Z,-6.21
2023-02-27T06:30:39.083Z,-6.21
2023-02-27T06:31:39.071Z,-6.20
2023-02-27T06:32:39.048Z,-6.19
2023-02-27T06:33:39.045Z,-6.17
2023-02-27T06:34:39.008Z,-6.15
2023-02-27T06:35:38.996Z,-6.13
2023-02-27T06:36:39.016Z,-6.11
2023-02-27T06:37:38.997Z,-6.10
2023-02-27T06:38:38.963Z,-6.08
2023-02-27T06:39:38.996Z,-6.07
2023-02-27T06:40:38.952Z,-6.06
2023-02-27T06:41:38.955Z,-6.05
2023-02-27T06:42:38.941Z,-6.03
2023-02-27T06:43:38.940Z,-6.02
2023-02-27T06:44:38.909Z,-6.00
2023-02-27T06:45:38.904Z,-5.99
2023-02-27T06:46:39.045Z,-5.98
2023-02-27T06:47:38.889Z,-5.97
2023-02-27T06:48:38.906Z,-5.96
2023-02-27T06:49:38.900Z,-5.97
2023-02-27T06:50:38.892Z,-5.97
2023-02-27T06:51:38.844Z,-5.96
2023-02-27T06:52:39.015Z,-5.96
2023-02-27T06:53:38.838Z,-5.95
2023-02-27T06:54:38.815Z,-5.96
2023-02-27T06:55:38.820Z,-5.95
2023-02-27T06:56:38.898Z,-5.94
2023-02-27T06:57:38.798Z,-5.93
2023-02-27T06:58:38.828Z,-5.93
2023-02-27T06:59:38.931Z,-5.92
2023-02-27T07:00:38.753Z,-5.92
2023-02-27T07:01:38.785Z,-5.91
2023-02-27T07:02:38.833Z,-5.90
2023-02-27T07:03:38.734Z,-5.90
2023-02-27T07:04:38.746Z,-5.89
2023-02-27T07:05:38.836Z,-5.88
2023-02-27T07:07:35.892Z,-5.88
2023-02-27T07:07:41.702Z,-5.87
2023-02-27T07:08:38.825Z,-5.87
2023-02-27T07:09:38.693Z,-5.87
2023-02-27T07:10:38.815Z,-5.86
2023-02-27T07:11:38.666Z,-5.86
2023-02-27T07:12:38.702Z,-5.85
2023-02-27T07:13:38.668Z,-5.83
2023-02-27T07:14:38.645Z,-5.80
2023-02-27T07:15:38.835Z,-5.77
2023-02-27T07:16:38.611Z,-5.74
2023-02-27T07:17:38.720Z,-5.71
2023-02-27T07:18:38.828Z,-5.68
2023-02-27T07:19:38.607Z,-5.67
2023-02-27T07:20:38.586Z,-5.66
2023-02-27T07:21:38.640Z,-5.64
2023-02-27T07:22:38.590Z,-5.61
2023-02-27T07:23:38.548Z,-5.57
2023-02-27T07:24:38.561Z,-5.54
2023-02-27T07:25:38.542Z,-5.54
2023-02-27T07:26:38.519Z,-5.53
2023-02-27T07:27:38.577Z,-5.52
2023-02-27T07:28:38.579Z,-5.50
2023-02-27T07:29:38.494Z,-5.48
2023-02-27T07:30:38.551Z,-5.48
2023-02-27T07:31:38.502Z,-5.49
2023-02-27T07:32:38.486Z,-5.49
2023-02-27T07:33:38.548Z,-5.48
2023-02-27T07:34:38.491Z,-5.47
2023-02-27T07:35:38.488Z,-5.46
2023-02-27T07:36:38.487Z,-5.46
2023-02-27T07:37:38.502Z,-5.46
2023-02-27T07:38:38.424Z,-5.46
2023-02-27T07:39:38.444Z,-5.45
2023-02-27T07:40:38.394Z,-5.43
2023-02-27T07:41:38.396Z,-5.42
2023-02-27T07:42:38.401Z,-5.41
2023-02-27T07:43:38.368Z,-5.39
2023-02-27T07:44:38.365Z,-5.38
2023-02-27T07:45:38.376Z,-5.36
2023-02-27T07:46:38.354Z,-5.33
2023-02-27T07:47:38.366Z,-5.30
2023-02-27T07:48:38.339Z,-5.26
2023-02-27T07:49:38.304Z,-5.23
2023-02-27T07:50:38.320Z,-5.19
2023-02-27T07:51:38.338Z,-5.15
2023-02-27T07:52:38.325Z,-5.12
2023-02-27T07:53:38.296Z,-5.08
2023-02-27T07:54:38.258Z,-5.03
2023-02-27T07:55:38.287Z,-4.98
2023-02-27T07:56:38.287Z,-4.94
2023-02-27T07:57:38.238Z,-4.89
2023-02-27T07:58:38.266Z,-4.85
2023-02-27T07:59:38.224Z,-4.81
2023-02-27T08:00:38.243Z,-4.78
2023-02-27T08:01:38.967Z,-4.74
2023-02-27T08:02:38.268Z,-4.70
2023-02-27T08:03:38.207Z,-4.65
2023-02-27T08:04:38.251Z,-4.59
2023-02-27T08:05:38.227Z,-4.52
2023-02-27T08:06:38.248Z,-4.47
2023-02-27T08:07:38.151Z,-4.42
2023-02-27T08:08:38.155Z,-4.36
2023-02-27T08:09:38.152Z,-4.30
2023-02-27T08:10:38.107Z,-4.26
2023-02-27T08:11:38.202Z,-4.22
2023-02-27T08:12:38.109Z,-4.18
2023-02-27T08:14:38.074Z,-4.12
2023-02-27T08:15:38.090Z,-4.08
2023-02-27T08:16:38.147Z,-4.06
2023-02-27T08:17:38.053Z,-4.05
2023-02-27T08:18:38.054Z,-4.06
2023-02-27T08:19:38.070Z,-4.04
2023-02-27T08:20:38.016Z,-4.00
2023-02-27T08:21:38.034Z,-3.95
2023-02-27T08:22:38.025Z,-3.91
2023-02-27T08:23:37.990Z,-3.89
2023-02-27T08:24:38.009Z,-3.86
2023-02-27T08:25:38.070Z,-3.81
2023-02-27T08:26:38.055Z,-3.76
2023-02-27T08:27:37.983Z,-3.72
2023-02-27T08:28:37.933Z,-3.70
2023-02-27T08:29:37.959Z,-3.67
2023-02-27T08:30:37.916Z,-3.62
2023-02-27T08:31:37.986Z,-3.56
2023-02-27T08:32:37.924Z,-3.52
2023-02-27T08:33:37.889Z,-3.48
2023-02-27T08:34:37.890Z,-3.43
2023-02-27T08:35:37.897Z,-3.41
2023-02-27T08:36:37.897Z,-3.37
2023-02-27T08:37:37.897Z,-3.30
2023-02-27T08:38:37.827Z,-3.20
2023-02-27T08:39:37.895Z,-3.10
2023-02-27T08:40:37.831Z,-3.04
2023-02-27T08:41:37.867Z,-3.00
2023-02-27T08:42:37.807Z,-2.96
2023-02-27T08:43:37.778Z,-2.92
2023-02-27T08:44:37.775Z,-2.87
2023-02-27T08:45:37.786Z,-2.84
2023-02-27T08:46:37.871Z,-2.82
2023-02-27T08:47:37.778Z,-2.83
2023-02-27T08:48:37.762Z,-2.82
2023-02-27T08:49:37.735Z,-2.77
2023-02-27T08:50:37.722Z,-2.71
2023-02-27T08:51:37.703Z,-2.68
2023-02-27T08:52:37.702Z,-2.66
2023-02-27T08:53:37.715Z,-2.64
2023-02-27T08:54:37.728Z,-2.62
2023-02-27T08:55:37.686Z,-2.59
2023-02-27T08:56:37.756Z,-2.54
2023-02-27T08:57:37.736Z,-2.48
2023-02-27T08:58:37.654Z,-2.40
2023-02-27T08:59:37.626Z,-2.30
2023-02-27T09:00:37.636Z,-2.25
2023-02-27T09:01:37.610Z,-2.26
2023-02-27T09:02:37.690Z,-2.27
2023-02-27T09:03:37.611Z,-2.26
2023-02-27T09:04:37.567Z,-2.24
2023-02-27T09:05:37.606Z,-2.24
2023-02-27T09:06:37.608Z,-2.24
2023-02-27T09:07:37.588Z,-2.25
2023-02-27T09:08:37.638Z,-2.25
2023-02-27T09:09:37.556Z,-2.24
2023-02-27T09:10:37.524Z,-2.24
2023-02-27T09:11:38.836Z,-2.23
2023-02-27T09:12:37.575Z,-2.21
2023-02-27T09:13:37.527Z,-2.21
2023-02-27T09:14:37.479Z,-2.20
2023-02-27T09:15:37.523Z,-2.20
2023-02-27T09:16:37.513Z,-2.20
2023-02-27T09:17:37.461Z,-2.18
2023-02-27T09:18:37.456Z,-2.16
2023-02-27T09:19:37.479Z,-2.13
2023-02-27T09:20:37.419Z,-2.11
2023-02-27T09:21:37.493Z,-2.13
2023-02-27T09:22:37.435Z,-2.17
2023-02-27T09:23:37.420Z,-2.21
2023-02-27T09:24:37.403Z,-2.27
2023-02-27T09:25:37.387Z,-2.32
2023-02-27T09:26:45.606Z,-2.34
2023-02-27T09:27:37.394Z,-2.31
2023-02-27T09:28:37.416Z,-2.28
2023-02-27T09:29:37.351Z,-2.26
2023-02-27T09:30:37.379Z,-2.26
2023-02-27T09:31:37.376Z,-2.25
2023-02-27T09:32:37.349Z,-2.23
2023-02-27T09:33:37.348Z,-2.22
2023-02-27T09:34:37.283Z,-2.23
2023-02-27T09:35:37.362Z,-2.25
2023-02-27T09:36:37.275Z,-2.27
2023-02-27T09:37:37.288Z,-2.30
2023-02-27T09:38:38.510Z,-2.32
2023-02-27T09:39:37.337Z,-2.30
2023-02-27T09:40:37.304Z,-2.21
2023-02-27T09:41:37.241Z,-2.09
2023-02-27T09:42:37.260Z,-1.97
2023-02-27T09:43:37.321Z,-1.83
2023-02-27T09:44:46.257Z,-1.67
2023-02-27T09:45:37.261Z,-1.53
2023-02-27T09:46:37.322Z,-1.41
2023-02-27T09:47:37.224Z,-1.33
2023-02-27T09:48:37.151Z,-1.27
2023-02-27T09:49:37.135Z,-1.26
2023-02-27T09:50:37.164Z,-1.30
2023-02-27T09:51:37.113Z,-1.34
2023-02-27T09:52:37.119Z,-1.38
2023-02-27T09:53:37.083Z,-1.40
2023-02-27T09:54:37.086Z,-1.35
2023-02-27T09:55:37.125Z,-1.29
2023-02-27T09:56:37.062Z,-1.22
2023-02-27T09:57:37.045Z,-1.13
2023-02-27T09:58:37.032Z,-1.01
2023-02-27T09:59:37.062Z,-0.89
2023-02-27T10:00:37.018Z,-0.81
2023-02-27T10:01:37.108Z,-0.75
2023-02-27T10:02:37.018Z,-0.70
2023-02-27T10:03:37.027Z,-0.67
2023-02-27T10:04:36.982Z,-0.67
2023-02-27T10:05:36.965Z,-0.72
2023-02-27T10:06:36.977Z,-0.78
2023-02-27T10:07:36.940Z,-0.82
2023-02-27T10:08:37.082Z,-0.82
2023-02-27T10:09:36.954Z,-0.79
2023-02-27T10:10:36.955Z,-0.74
2023-02-27T10:11:36.909Z,-0.70
2023-02-27T10:12:36.910Z,-0.66
2023-02-27T10:13:36.933Z,-0.64
2023-02-27T10:14:36.921Z,-0.58
2023-02-27T10:15:36.860Z,-0.47
2023-02-27T10:16:36.893Z,-0.34
2023-02-27T10:17:36.842Z,-0.26
2023-02-27T10:18:36.837Z,-0.22
2023-02-27T10:19:36.870Z,-0.21
2023-02-27T10:20:36.868Z,-0.21
2023-02-27T10:21:36.800Z,-0.23
2023-02-27T10:22:36.794Z,-0.21
2023-02-27T10:23:36.797Z,-0.20
2023-02-27T10:24:36.799Z,-0.22
2023-02-27T10:25:36.831Z,-0.25
2023-02-27T10:26:36.751Z,-0.26
2023-02-27T10:27:36.837Z,-0.25
2023-02-27T10:28:36.749Z,-0.27
2023-02-27T10:29:36.728Z,-0.31
2023-02-27T10:30:36.940Z,-0.28
2023-02-27T10:31:36.809Z,-0.24
2023-02-27T10:32:36.716Z,-0.24
2023-02-27T10:33:36.701Z,-0.23
2023-02-27T10:34:36.701Z,-0.22
2023-02-27T10:35:36.668Z,-0.20
2023-02-27T10:36:36.760Z,-0.19
2023-02-27T10:37:36.684Z,-0.21
2023-02-27T10:38:36.704Z,-0.27
2023-02-27T10:39:37.514Z,-0.28
2023-02-27T10:40:36.639Z,-0.36
2023-02-27T10:41:36.678Z,-0.39
2023-02-27T10:42:36.660Z,-0.31
2023-02-27T10:43:36.610Z,-0.23
2023-02-27T10:44:36.661Z,-0.16
2023-02-27T10:45:38.815Z,-0.08
2023-02-27T10:46:36.679Z,0.04
2023-02-27T10:47:36.559Z,0.13
2023-02-27T10:48:36.562Z,0.17
2023-02-27T10:49:36.559Z,0.18
2023-02-27T10:50:36.555Z,0.11
2023-02-27T10:51:36.504Z,0.05
2023-02-27T10:52:36.606Z,0.07
2023-02-27T10:53:36.503Z,0.13
2023-02-27T10:54:36.520Z,0.21
2023-02-27T10:55:36.471Z,0.30
2023-02-27T10:56:36.472Z,0.40
2023-02-27T10:57:36.432Z,0.42
2023-02-27T10:58:36.432Z,0.34
2023-02-27T10:59:36.445Z,0.27
2023-02-27T11:00:36.409Z,0.15
2023-02-27T11:01:36.469Z,-0.02
2023-02-27T11:02:36.384Z,-0.12
2023-02-27T11:03:36.412Z,-0.15
2023-02-27T11:04:36.423Z,-0.07
2023-02-27T11:05:36.366Z,0.12
2023-02-27T11:06:36.348Z,0.38
2023-02-27T11:07:36.347Z,0.66
2023-02-27T11:08:36.328Z,0.90
2023-02-27T11:09:36.324Z,1.08
2023-02-27T11:10:36.388Z,1.15
2023-02-27T11:11:36.291Z,1.11
2023-02-27T11:12:36.305Z,1.02
2023-02-27T11:13:36.350Z,0.90
2023-02-27T11:14:36.307Z,0.80
2023-02-27T11:15:36.412Z,0.81
2023-02-27T11:16:36.244Z,0.94
2023-02-27T11:17:36.317Z,1.16
2023-02-27T11:18:36.238Z,1.37
2023-02-27T11:19:36.231Z,1.50
2023-02-27T11:20:36.218Z,1.54
2023-02-27T11:21:36.193Z,1.48
2023-02-27T11:22:36.198Z,1.44
2023-02-27T11:23:36.178Z,1.39
2023-02-27T11:24:36.174Z,1.30
2023-02-27T11:25:36.172Z,1.33
2023-02-27T11:26:37.000Z,1.49
2023-02-27T11:27:36.150Z,1.63
2023-02-27T11:28:36.122Z,1.72
2023-02-27T11:29:36.129Z,1.61
2023-02-27T11:30:36.156Z,1.27
2023-02-27T11:31:36.137Z,0.88
2023-02-27T11:32:36.099Z,0.54
2023-02-27T11:33:36.103Z,0.27
2023-02-27T11:34:36.084Z,0.07
2023-02-27T11:35:36.142Z,-0.08
2023-02-27T11:36:36.054Z,-0.18
2023-02-27T11:37:36.068Z,-0.25
2023-02-27T11:38:36.036Z,-0.30
2023-02-27T11:39:36.057Z,-0.31
2023-02-27T11:40:36.011Z,-0.30
2023-02-27T11:41:36.035Z,-0.28
2023-02-27T11:42:36.009Z,-0.23
2023-02-27T11:43:36.005Z,-0.18
2023-02-27T11:44:50.225Z,-0.21
2023-02-27T11:46:13.868Z,-0.27
2023-02-27T11:46:52.013Z,-0.31
2023-02-27T11:47:36.210Z,-0.33
2023-02-27T11:48:35.988Z,-0.32
2023-02-27T11:49:35.940Z,-0.28
2023-02-27T11:50:35.910Z,-0.24
2023-02-27T11:51:35.943Z,-0.21
2023-02-27T11:52:35.904Z,-0.21
2023-02-27T11:53:35.902Z,-0.23
2023-02-27T11:54:35.868Z,-0.22
2023-02-27T11:55:35.861Z,-0.19
2023-02-27T11:56:36.378Z,-0.17
2023-02-27T11:57:35.839Z,-0.19
2023-02-27T11:58:35.882Z,-0.22
2023-02-27T11:59:35.811Z,-0.24
2023-02-27T12:00:35.815Z,-0.23
2023-02-27T12:01:35.808Z,-0.21
2023-02-27T12:02:38.330Z,-0.17
2023-02-27T12:03:35.816Z,-0.11
2023-02-27T12:04:35.769Z,-0.06
2023-02-27T12:05:35.761Z,-0.03
2023-02-27T12:06:35.784Z,0.09
2023-02-27T12:07:35.762Z,0.26
2023-02-27T12:08:35.767Z,0.40
2023-02-27T12:09:35.722Z,0.58
2023-02-27T12:10:35.736Z,0.71
2023-02-27T12:11:35.696Z,0.75
2023-02-27T12:12:35.699Z,0.73
2023-02-27T12:13:35.706Z,0.63
2023-02-27T12:14:35.742Z,0.55
2023-02-27T12:15:35.657Z,0.55
2023-02-27T12:16:36.087Z,0.63
2023-02-27T12:17:35.634Z,0.76
2023-02-27T12:18:35.669Z,0.90
2023-02-27T12:19:35.676Z,1.06
2023-02-27T12:20:35.617Z,1.13
2023-02-27T12:21:35.594Z,1.09
2023-02-27T12:22:35.596Z,0.98
2023-02-27T12:23:35.590Z,0.81
2023-02-27T12:24:35.596Z,0.63
2023-02-27T12:25:35.574Z,0.50
2023-02-27T12:26:35.576Z,0.43
2023-02-27T12:27:35.706Z,0.36
2023-02-27T12:28:35.597Z,0.27
2023-02-27T12:29:35.510Z,0.16
2023-02-27T12:30:35.562Z,0.06
2023-02-27T12:31:35.609Z,-0.02
2023-02-27T12:32:35.573Z,-0.06
2023-02-27T12:33:35.483Z,-0.09
2023-02-27T12:34:35.459Z,-0.10
2023-02-27T12:35:36.023Z,-0.08
2023-02-27T12:36:35.452Z,-0.06
2023-02-27T12:37:35.485Z,-0.07
2023-02-27T12:38:35.432Z,-0.10
2023-02-27T12:39:35.407Z,-0.09
2023-02-27T12:40:35.444Z,-0.05
2023-02-27T12:41:35.453Z,0.01
2023-02-27T12:42:35.400Z,0.08
2023-02-27T12:43:35.391Z,0.15
2023-02-27T12:44:35.370Z,0.18
2023-02-27T12:45:35.361Z,0.19
2023-02-27T12:46:35.395Z,0.20
2023-02-27T12:47:35.366Z,0.22
2023-02-27T12:48:35.353Z,0.27
2023-02-27T12:49:35.922Z,0.30
2023-02-27T12:50:35.327Z,0.31
2023-02-27T12:51:35.326Z,0.32
2023-02-27T12:52:35.339Z,0.37
2023-02-27T12:53:35.303Z,0.46
2023-02-27T12:54:35.257Z,0.58
2023-02-27T12:55:35.271Z,0.72
2023-02-27T12:56:35.245Z,0.85